Terminal Aerodrome Forecast
Issued by NWS Springfield, MO

Home | Current Version | Previous Version | Text Only | Print | Product List | Glossary On
Versions: 1 2 3 4 5 6 7 8 9 10 11 12 13 14 15 16 17 18 19 20 21 22 23 24 25 26 27
000
FTUS43 KSGF 291300 CCA
TAFSGF
TAF COR
KSGF 291342Z 2914/3012 17008KT 6SM -SHRA VCTS SCT015CB OVC025
      TEMPO 2914/2917 1SM RA BR BKN012
     FM291700 19010KT 6SM -TSRA BR BKN025CB OVC050
      TEMPO 2921/3001 4SM -TSRA BR OVC015CB
     FM300100 23006KT 4SM -SHRA BR VCTS SCT007 OVC015CB
     FM300600 30006KT 6SM BR OVC007=

USA.gov is the U.S. government's official web portal to all federal, state and local government web resources and services.